sensor_id;sensor_type;location;lat;lon;timestamp;P1;durP1;ratioP1;P2;durP2;ratioP2
20824;SDS011;10573;50.936;6.978;2023-02-15T00:01:38;43.73;;;19.47;;
20824;SDS011;10573;50.936;6.978;2023-02-15T00:04:04;41.27;;;19.43;;
20824;SDS011;10573;50.936;6.978;2023-02-15T00:06:31;40.60;;;20.63;;
20824;SDS011;10573;50.936;6.978;2023-02-15T00:08:56;37.67;;;18.90;;
20824;SDS011;10573;50.936;6.978;2023-02-15T00:11:22;38.20;;;19.87;;
20824;SDS011;10573;50.936;6.978;2023-02-15T00:14:19;40.63;;;20.47;;
20824;SDS011;10573;50.936;6.978;2023-02-15T00:16:46;40.63;;;20.37;;
20824;SDS011;10573;50.936;6.978;2023-02-15T00:19:14;42.17;;;21.10;;
20824;SDS011;10573;50.936;6.978;2023-02-15T00:21:41;39.90;;;19.60;;
20824;SDS011;10573;50.936;6.978;2023-02-15T00:24:07;39.33;;;18.93;;
20824;SDS011;10573;50.936;6.978;2023-02-15T00:26:35;37.80;;;19.43;;
20824;SDS011;10573;50.936;6.978;2023-02-15T00:29:02;38.10;;;19.37;;
20824;SDS011;10573;50.936;6.978;2023-02-15T00:31:28;48.60;;;20.60;;
20824;SDS011;10573;50.936;6.978;2023-02-15T00:33:55;40.97;;;20.33;;
20824;SDS011;10573;50.936;6.978;2023-02-15T00:36:25;43.27;;;19.70;;
20824;SDS011;10573;50.936;6.978;2023-02-15T00:38:50;41.27;;;21.03;;
20824;SDS011;10573;50.936;6.978;2023-02-15T00:41:16;38.77;;;19.47;;
20824;SDS011;10573;50.936;6.978;2023-02-15T00:43:41;41.27;;;19.17;;
20824;SDS011;10573;50.936;6.978;2023-02-15T00:46:07;38.77;;;18.97;;
20824;SDS011;10573;50.936;6.978;2023-02-15T00:48:32;41.00;;;20.27;;
20824;SDS011;10573;50.936;6.978;2023-02-15T00:50:58;43.57;;;21.50;;
20824;SDS011;10573;50.936;6.978;2023-02-15T00:53:25;42.80;;;20.63;;
20824;SDS011;10573;50.936;6.978;2023-02-15T00:55:52;39.57;;;18.33;;
20824;SDS011;10573;50.936;6.978;2023-02-15T00:58:18;42.13;;;19.87;;
20824;SDS011;10573;50.936;6.978;2023-02-15T01:00:44;40.07;;;19.07;;
20824;SDS011;10573;50.936;6.978;2023-02-15T01:03:11;38.73;;;20.60;;
20824;SDS011;10573;50.936;6.978;2023-02-15T01:05:38;43.27;;;20.93;;
20824;SDS011;10573;50.936;6.978;2023-02-15T01:08:03;40.47;;;19.57;;
20824;SDS011;10573;50.936;6.978;2023-02-15T01:13:04;39.57;;;19.13;;
20824;SDS011;10573;50.936;6.978;2023-02-15T01:15:30;48.27;;;19.40;;
20824;SDS011;10573;50.936;6.978;2023-02-15T01:17:55;40.20;;;19.83;;
20824;SDS011;10573;50.936;6.978;2023-02-15T01:20:22;41.13;;;20.30;;
20824;SDS011;10573;50.936;6.978;2023-02-15T01:22:50;38.03;;;18.90;;
20824;SDS011;10573;50.936;6.978;2023-02-15T01:25:16;40.97;;;19.10;;
20824;SDS011;10573;50.936;6.978;2023-02-15T01:27:42;41.10;;;19.83;;
20824;SDS011;10573;50.936;6.978;2023-02-15T01:30:08;41.53;;;20.13;;
20824;SDS011;10573;50.936;6.978;2023-02-15T01:32:34;43.73;;;19.73;;
20824;SDS011;10573;50.936;6.978;2023-02-15T01:35:00;37.67;;;18.73;;
20824;SDS011;10573;50.936;6.978;2023-02-15T01:37:26;44.53;;;20.83;;
20824;SDS011;10573;50.936;6.978;2023-02-15T01:39:51;39.77;;;19.40;;
20824;SDS011;10573;50.936;6.978;2023-02-15T01:42:22;36.70;;;19.33;;
20824;SDS011;10573;50.936;6.978;2023-02-15T01:44:50;42.50;;;18.10;;
20824;SDS011;10573;50.936;6.978;2023-02-15T01:50:00;46.27;;;19.97;;
20824;SDS011;10573;50.936;6.978;2023-02-15T01:52:31;38.60;;;18.70;;
20824;SDS011;10573;50.936;6.978;2023-02-15T01:54:59;41.97;;;19.07;;
20824;SDS011;10573;50.936;6.978;2023-02-15T01:57:25;42.23;;;20.17;;
20824;SDS011;10573;50.936;6.978;2023-02-15T01:59:54;42.07;;;19.20;;
20824;SDS011;10573;50.936;6.978;2023-02-15T02:02:23;43.03;;;19.40;;
20824;SDS011;10573;50.936;6.978;2023-02-15T02:04:54;39.53;;;18.67;;
20824;SDS011;10573;50.936;6.978;2023-02-15T02:07:26;40.60;;;19.03;;
20824;SDS011;10573;50.936;6.978;2023-02-15T02:09:53;38.27;;;18.93;;
20824;SDS011;10573;50.936;6.978;2023-02-15T02:12:19;41.10;;;18.63;;
20824;SDS011;10573;50.936;6.978;2023-02-15T02:14:47;38.10;;;19.10;;
20824;SDS011;10573;50.936;6.978;2023-02-15T02:19:58;37.83;;;19.27;;
20824;SDS011;10573;50.936;6.978;2023-02-15T02:33:28;39.50;;;19.07;;
20824;SDS011;10573;50.936;6.978;2023-02-15T02:36:30;39.10;;;18.80;;
20824;SDS011;10573;50.936;6.978;2023-02-15T02:44:42;38.33;;;19.73;;
20824;SDS011;10573;50.936;6.978;2023-02-15T02:47:16;38.60;;;18.90;;
20824;SDS011;10573;50.936;6.978;2023-02-15T02:49:44;38.90;;;18.23;;
20824;SDS011;10573;50.936;6.978;2023-02-15T02:54:56;35.47;;;17.60;;
20824;SDS011;10573;50.936;6.978;2023-02-15T02:57:23;37.47;;;18.17;;
20824;SDS011;10573;50.936;6.978;2023-02-15T02:59:51;36.90;;;18.47;;
20824;SDS011;10573;50.936;6.978;2023-02-15T03:02:21;39.00;;;18.50;;
20824;SDS011;10573;50.936;6.978;2023-02-15T03:04:54;42.77;;;19.97;;
20824;SDS011;10573;50.936;6.978;2023-02-15T03:07:28;38.50;;;19.37;;
20824;SDS011;10573;50.936;6.978;2023-02-15T03:09:57;33.13;;;16.80;;
20824;SDS011;10573;50.936;6.978;2023-02-15T03:12:24;34.70;;;18.27;;
20824;SDS011;10573;50.936;6.978;2023-02-15T03:14:59;40.97;;;18.23;;
20824;SDS011;10573;50.936;6.978;2023-02-15T03:17:30;38.10;;;17.83;;
20824;SDS011;10573;50.936;6.978;2023-02-15T03:20:00;38.97;;;18.00;;
20824;SDS011;10573;50.936;6.978;2023-02-15T03:22:30;40.97;;;17.83;;
20824;SDS011;10573;50.936;6.978;2023-02-15T03:27:36;38.53;;;17.90;;
20824;SDS011;10573;50.936;6.978;2023-02-15T03:30:05;35.20;;;18.43;;
20824;SDS011;10573;50.936;6.978;2023-02-15T03:32:32;35.60;;;17.90;;
20824;SDS011;10573;50.936;6.978;2023-02-15T03:34:59;39.30;;;19.27;;
20824;SDS011;10573;50.936;6.978;2023-02-15T03:40:18;38.33;;;18.27;;
20824;SDS011;10573;50.936;6.978;2023-02-15T03:43:14;40.20;;;17.77;;
20824;SDS011;10573;50.936;6.978;2023-02-15T03:45:46;36.40;;;17.63;;
20824;SDS011;10573;50.936;6.978;2023-02-15T03:48:27;37.93;;;17.53;;
20824;SDS011;10573;50.936;6.978;2023-02-15T03:51:04;42.70;;;19.53;;
20824;SDS011;10573;50.936;6.978;2023-02-15T03:53:51;38.03;;;18.63;;
20824;SDS011;10573;50.936;6.978;2023-02-15T03:56:19;37.77;;;17.40;;
20824;SDS011;10573;50.936;6.978;2023-02-15T03:58:45;35.47;;;17.67;;
20824;SDS011;10573;50.936;6.978;2023-02-15T04:01:37;36.03;;;17.70;;
20824;SDS011;10573;50.936;6.978;2023-02-15T04:04:33;37.40;;;18.73;;
20824;SDS011;10573;50.936;6.978;2023-02-15T04:07:00;37.53;;;18.50;;
20824;SDS011;10573;50.936;6.978;2023-02-15T04:09:27;40.27;;;18.40;;
20824;SDS011;10573;50.936;6.978;2023-02-15T04:12:11;41.57;;;18.00;;
20824;SDS011;10573;50.936;6.978;2023-02-15T04:14:37;40.87;;;18.03;;
20824;SDS011;10573;50.936;6.978;2023-02-15T04:17:21;39.60;;;18.43;;
20824;SDS011;10573;50.936;6.978;2023-02-15T04:19:46;41.07;;;18.83;;
20824;SDS011;10573;50.936;6.978;2023-02-15T04:22:30;37.93;;;18.43;;
20824;SDS011;10573;50.936;6.978;2023-02-15T04:25:13;35.30;;;17.60;;
20824;SDS011;10573;50.936;6.978;2023-02-15T04:27:40;38.67;;;18.03;;
20824;SDS011;10573;50.936;6.978;2023-02-15T04:30:07;37.03;;;17.30;;
20824;SDS011;10573;50.936;6.978;2023-02-15T04:32:33;36.47;;;17.50;;
20824;SDS011;10573;50.936;6.978;2023-02-15T04:35:00;41.40;;;18.87;;
20824;SDS011;10573;50.936;6.978;2023-02-15T04:37:25;39.53;;;18.27;;
20824;SDS011;10573;50.936;6.978;2023-02-15T04:39:51;38.70;;;18.17;;
20824;SDS011;10573;50.936;6.978;2023-02-15T04:42:16;33.93;;;17.20;;
20824;SDS011;10573;50.936;6.978;2023-02-15T04:44:42;37.90;;;17.90;;
20824;SDS011;10573;50.936;6.978;2023-02-15T04:47:07;39.43;;;17.27;;
20824;SDS011;10573;50.936;6.978;2023-02-15T04:49:33;36.23;;;17.37;;
20824;SDS011;10573;50.936;6.978;2023-02-15T04:51:58;31.53;;;16.20;;
20824;SDS011;10573;50.936;6.978;2023-02-15T04:54:24;35.20;;;16.93;;
20824;SDS011;10573;50.936;6.978;2023-02-15T04:56:49;34.33;;;16.77;;
20824;SDS011;10573;50.936;6.978;2023-02-15T04:59:14;35.57;;;17.27;;
20824;SDS011;10573;50.936;6.978;2023-02-15T05:01:40;32.27;;;16.57;;
20824;SDS011;10573;50.936;6.978;2023-02-15T05:04:06;37.17;;;18.10;;
20824;SDS011;10573;50.936;6.978;2023-02-15T05:06:32;35.13;;;16.10;;
20824;SDS011;10573;50.936;6.978;2023-02-15T05:08:58;36.07;;;17.60;;
20824;SDS011;10573;50.936;6.978;2023-02-15T05:11:24;36.87;;;17.27;;
20824;SDS011;10573;50.936;6.978;2023-02-15T05:13:50;37.08;;;17.48;;
20824;SDS011;10573;50.936;6.978;2023-02-15T05:16:15;31.50;;;16.30;;
20824;SDS011;10573;50.936;6.978;2023-02-15T05:18:41;36.77;;;19.43;;
20824;SDS011;10573;50.936;6.978;2023-02-15T05:21:06;31.90;;;16.40;;
20824;SDS011;10573;50.936;6.978;2023-02-15T05:23:31;34.90;;;16.97;;
20824;SDS011;10573;50.936;6.978;2023-02-15T05:25:57;31.30;;;15.70;;
20824;SDS011;10573;50.936;6.978;2023-02-15T05:28:41;36.42;;;19.48;;
20824;SDS011;10573;50.936;6.978;2023-02-15T05:31:13;35.00;;;17.07;;
20824;SDS011;10573;50.936;6.978;2023-02-15T05:33:41;30.50;;;16.00;;
20824;SDS011;10573;50.936;6.978;2023-02-15T05:36:06;33.13;;;15.70;;
20824;SDS011;10573;50.936;6.978;2023-02-15T05:38:32;35.17;;;16.57;;
20824;SDS011;10573;50.936;6.978;2023-02-15T05:40:58;35.07;;;17.03;;
20824;SDS011;10573;50.936;6.978;2023-02-15T05:43:24;33.47;;;16.27;;
20824;SDS011;10573;50.936;6.978;2023-02-15T05:45:51;32.47;;;15.70;;
20824;SDS011;10573;50.936;6.978;2023-02-15T05:48:19;32.63;;;16.17;;
20824;SDS011;10573;50.936;6.978;2023-02-15T05:50:45;33.13;;;16.03;;
20824;SDS011;10573;50.936;6.978;2023-02-15T05:53:11;32.43;;;16.53;;
20824;SDS011;10573;50.936;6.978;2023-02-15T05:55:40;35.03;;;17.00;;
20824;SDS011;10573;50.936;6.978;2023-02-15T05:58:06;33.43;;;16.40;;
20824;SDS011;10573;50.936;6.978;2023-02-15T06:00:32;32.63;;;15.87;;
20824;SDS011;10573;50.936;6.978;2023-02-15T06:02:59;33.67;;;18.42;;
20824;SDS011;10573;50.936;6.978;2023-02-15T06:05:24;33.50;;;16.00;;
20824;SDS011;10573;50.936;6.978;2023-02-15T06:07:49;32.03;;;14.87;;
20824;SDS011;10573;50.936;6.978;2023-02-15T06:10:15;29.00;;;15.40;;
20824;SDS011;10573;50.936;6.978;2023-02-15T06:12:40;29.50;;;15.40;;
20824;SDS011;10573;50.936;6.978;2023-02-15T06:15:06;28.43;;;15.43;;
20824;SDS011;10573;50.936;6.978;2023-02-15T06:17:32;30.43;;;15.50;;
20824;SDS011;10573;50.936;6.978;2023-02-15T06:19:57;28.57;;;15.47;;
20824;SDS011;10573;50.936;6.978;2023-02-15T06:22:22;31.37;;;15.23;;
20824;SDS011;10573;50.936;6.978;2023-02-15T06:24:48;34.13;;;15.97;;
20824;SDS011;10573;50.936;6.978;2023-02-15T06:27:13;30.77;;;15.80;;
20824;SDS011;10573;50.936;6.978;2023-02-15T06:29:39;30.67;;;15.40;;
20824;SDS011;10573;50.936;6.978;2023-02-15T06:32:04;30.83;;;15.87;;
20824;SDS011;10573;50.936;6.978;2023-02-15T06:34:30;31.30;;;15.43;;
20824;SDS011;10573;50.936;6.978;2023-02-15T06:36:55;31.70;;;15.03;;
20824;SDS011;10573;50.936;6.978;2023-02-15T06:39:21;31.07;;;15.63;;
20824;SDS011;10573;50.936;6.978;2023-02-15T06:41:46;34.57;;;16.47;;
20824;SDS011;10573;50.936;6.978;2023-02-15T06:44:12;30.87;;;15.57;;
20824;SDS011;10573;50.936;6.978;2023-02-15T06:46:37;29.43;;;15.07;;
20824;SDS011;10573;50.936;6.978;2023-02-15T06:49:03;29.87;;;15.43;;
20824;SDS011;10573;50.936;6.978;2023-02-15T06:51:28;31.07;;;14.80;;
20824;SDS011;10573;50.936;6.978;2023-02-15T06:53:54;31.13;;;15.20;;
20824;SDS011;10573;50.936;6.978;2023-02-15T06:56:19;31.03;;;15.80;;
20824;SDS011;10573;50.936;6.978;2023-02-15T06:58:44;36.23;;;15.73;;
20824;SDS011;10573;50.936;6.978;2023-02-15T07:01:11;28.10;;;14.60;;
20824;SDS011;10573;50.936;6.978;2023-02-15T07:03:37;31.77;;;16.00;;
20824;SDS011;10573;50.936;6.978;2023-02-15T07:06:02;27.13;;;14.80;;
20824;SDS011;10573;50.936;6.978;2023-02-15T07:08:33;26.73;;;13.50;;
20824;SDS011;10573;50.936;6.978;2023-02-15T07:10:58;28.40;;;14.67;;
20824;SDS011;10573;50.936;6.978;2023-02-15T07:13:44;28.83;;;15.37;;
20824;SDS011;10573;50.936;6.978;2023-02-15T07:16:09;29.27;;;15.20;;
20824;SDS011;10573;50.936;6.978;2023-02-15T07:18:35;31.00;;;14.57;;
20824;SDS011;10573;50.936;6.978;2023-02-15T07:21:00;27.67;;;14.43;;
20824;SDS011;10573;50.936;6.978;2023-02-15T07:23:27;26.23;;;13.70;;
20824;SDS011;10573;50.936;6.978;2023-02-15T07:25:59;27.90;;;14.67;;
20824;SDS011;10573;50.936;6.978;2023-02-15T07:28:25;28.60;;;14.40;;
20824;SDS011;10573;50.936;6.978;2023-02-15T07:30:51;25.40;;;13.70;;
20824;SDS011;10573;50.936;6.978;2023-02-15T07:33:16;26.93;;;14.73;;
20824;SDS011;10573;50.936;6.978;2023-02-15T07:35:56;76.10;;;30.20;;
20824;SDS011;10573;50.936;6.978;2023-02-15T07:38:27;32.73;;;18.40;;
20824;SDS011;10573;50.936;6.978;2023-02-15T07:40:59;27.33;;;13.83;;
20824;SDS011;10573;50.936;6.978;2023-02-15T07:43:26;24.80;;;13.47;;
20824;SDS011;10573;50.936;6.978;2023-02-15T07:45:51;26.03;;;13.53;;
20824;SDS011;10573;50.936;6.978;2023-02-15T07:48:17;24.23;;;13.07;;
20824;SDS011;10573;50.936;6.978;2023-02-15T07:50:42;23.20;;;12.87;;
20824;SDS011;10573;50.936;6.978;2023-02-15T07:53:08;22.30;;;12.23;;
20824;SDS011;10573;50.936;6.978;2023-02-15T07:55:33;22.30;;;12.70;;
20824;SDS011;10573;50.936;6.978;2023-02-15T07:57:59;21.27;;;11.93;;
20824;SDS011;10573;50.936;6.978;2023-02-15T08:00:24;22.30;;;12.53;;
20824;SDS011;10573;50.936;6.978;2023-02-15T08:02:54;19.50;;;11.67;;
20824;SDS011;10573;50.936;6.978;2023-02-15T08:05:41;22.20;;;11.90;;
20824;SDS011;10573;50.936;6.978;2023-02-15T12:28:05;17.10;;;7.80;;
20824;SDS011;10573;50.936;6.978;2023-02-15T12:30:47;12.30;;;7.97;;
20824;SDS011;10573;50.936;6.978;2023-02-15T12:33:18;14.10;;;8.07;;
20824;SDS011;10573;50.936;6.978;2023-02-15T12:35:50;13.47;;;8.80;;
20824;SDS011;10573;50.936;6.978;2023-02-15T12:38:23;23.47;;;9.20;;
20824;SDS011;10573;50.936;6.978;2023-02-15T12:41:03;11.63;;;7.55;;
20824;SDS011;10573;50.936;6.978;2023-02-15T12:43:34;11.90;;;7.43;;
20824;SDS011;10573;50.936;6.978;2023-02-15T12:46:13;13.73;;;8.25;;
20824;SDS011;10573;50.936;6.978;2023-02-15T12:48:45;12.32;;;7.80;;
20824;SDS011;10573;50.936;6.978;2023-02-15T12:51:13;13.27;;;7.43;;
20824;SDS011;10573;50.936;6.978;2023-02-15T12:53:40;11.77;;;7.63;;
20824;SDS011;10573;50.936;6.978;2023-02-15T12:56:07;12.93;;;8.65;;
20824;SDS011;10573;50.936;6.978;2023-02-15T12:58:38;17.83;;;7.82;;
20824;SDS011;10573;50.936;6.978;2023-02-15T13:06:33;12.25;;;7.80;;
20824;SDS011;10573;50.936;6.978;2023-02-15T13:09:17;15.35;;;8.23;;
20824;SDS011;10573;50.936;6.978;2023-02-15T13:11:45;11.05;;;7.43;;
20824;SDS011;10573;50.936;6.978;2023-02-15T13:14:31;12.20;;;8.05;;
20824;SDS011;10573;50.936;6.978;2023-02-15T13:16:58;13.50;;;7.95;;
20824;SDS011;10573;50.936;6.978;2023-02-15T13:19:29;12.18;;;8.23;;
20824;SDS011;10573;50.936;6.978;2023-02-15T13:22:02;12.23;;;7.70;;
20824;SDS011;10573;50.936;6.978;2023-02-15T13:24:40;13.90;;;8.10;;
20824;SDS011;10573;50.936;6.978;2023-02-15T13:27:18;11.93;;;8.52;;
20824;SDS011;10573;50.936;6.978;2023-02-15T13:29:56;9.68;;;7.45;;
20824;SDS011;10573;50.936;6.978;2023-02-15T13:32:25;11.07;;;7.90;;
20824;SDS011;10573;50.936;6.978;2023-02-15T13:34:53;12.10;;;8.40;;
20824;SDS011;10573;50.936;6.978;2023-02-15T13:37:33;10.13;;;7.38;;
20824;SDS011;10573;50.936;6.978;2023-02-15T13:40:15;15.32;;;10.07;;
20824;SDS011;10573;50.936;6.978;2023-02-15T13:42:58;16.30;;;11.18;;
20824;SDS011;10573;50.936;6.978;2023-02-15T13:45:42;10.93;;;8.25;;
20824;SDS011;10573;50.936;6.978;2023-02-15T13:51:29;10.50;;;7.43;;
20824;SDS011;10573;50.936;6.978;2023-02-15T13:54:26;10.02;;;7.75;;
20824;SDS011;10573;50.936;6.978;2023-02-15T14:30:13;14.68;;;7.53;;
20824;SDS011;10573;50.936;6.978;2023-02-15T14:32:45;11.85;;;8.18;;
20824;SDS011;10573;50.936;6.978;2023-02-15T14:35:15;11.68;;;8.25;;
20824;SDS011;10573;50.936;6.978;2023-02-15T14:43:41;12.60;;;8.48;;
20824;SDS011;10573;50.936;6.978;2023-02-15T14:48:55;14.70;;;8.80;;
20824;SDS011;10573;50.936;6.978;2023-02-15T14:56:43;12.95;;;9.00;;
20824;SDS011;10573;50.936;6.978;2023-02-15T14:59:21;16.23;;;9.20;;
20824;SDS011;10573;50.936;6.978;2023-02-15T15:02:11;16.10;;;8.88;;
20824;SDS011;10573;50.936;6.978;2023-02-15T15:07:27;13.95;;;9.07;;
20824;SDS011;10573;50.936;6.978;2023-02-15T15:12:52;16.30;;;9.40;;
20824;SDS011;10573;50.936;6.978;2023-02-15T15:18:04;12.82;;;9.32;;
20824;SDS011;10573;50.936;6.978;2023-02-15T15:20:40;15.55;;;10.15;;
20824;SDS011;10573;50.936;6.978;2023-02-15T15:25:43;15.97;;;9.80;;
20824;SDS011;10573;50.936;6.978;2023-02-15T15:31:20;16.17;;;10.07;;
20824;SDS011;10573;50.936;6.978;2023-02-15T15:34:43;14.60;;;9.50;;
20824;SDS011;10573;50.936;6.978;2023-02-15T15:47:57;24.33;;;10.75;;
20824;SDS011;10573;50.936;6.978;2023-02-15T15:50:44;22.40;;;10.20;;
20824;SDS011;10573;50.936;6.978;2023-02-15T15:53:32;23.73;;;10.47;;
20824;SDS011;10573;50.936;6.978;2023-02-15T15:56:00;24.23;;;10.50;;
20824;SDS011;10573;50.936;6.978;2023-02-15T15:58:30;15.98;;;10.00;;
20824;SDS011;10573;50.936;6.978;2023-02-15T16:00:59;15.50;;;10.60;;
20824;SDS011;10573;50.936;6.978;2023-02-15T16:03:31;15.68;;;10.02;;
20824;SDS011;10573;50.936;6.978;2023-02-15T16:05:57;16.27;;;10.07;;
20824;SDS011;10573;50.936;6.978;2023-02-15T16:08:25;14.60;;;10.05;;
20824;SDS011;10573;50.936;6.978;2023-02-15T16:10:51;15.83;;;10.57;;
20824;SDS011;10573;50.936;6.978;2023-02-15T16:13:16;17.30;;;10.93;;
20824;SDS011;10573;50.936;6.978;2023-02-15T16:15:49;15.83;;;10.13;;
20824;SDS011;10573;50.936;6.978;2023-02-15T16:18:17;16.23;;;10.40;;
20824;SDS011;10573;50.936;6.978;2023-02-15T16:20:50;18.90;;;10.32;;
20824;SDS011;10573;50.936;6.978;2023-02-15T16:28:29;19.73;;;10.52;;
20824;SDS011;10573;50.936;6.978;2023-02-15T16:31:16;25.80;;;15.07;;
20824;SDS011;10573;50.936;6.978;2023-02-15T16:33:41;49.72;;;26.05;;
20824;SDS011;10573;50.936;6.978;2023-02-15T16:36:19;15.10;;;10.70;;
20824;SDS011;10573;50.936;6.978;2023-02-15T16:41:23;18.27;;;10.87;;
20824;SDS011;10573;50.936;6.978;2023-02-15T16:43:55;18.13;;;10.35;;
20824;SDS011;10573;50.936;6.978;2023-02-15T16:46:36;17.40;;;10.30;;
20824;SDS011;10573;50.936;6.978;2023-02-15T16:49:06;18.42;;;10.73;;
20824;SDS011;10573;50.936;6.978;2023-02-15T16:51:40;20.95;;;11.07;;
20824;SDS011;10573;50.936;6.978;2023-02-15T16:54:13;19.30;;;10.57;;
20824;SDS011;10573;50.936;6.978;2023-02-15T16:56:43;16.60;;;10.38;;
20824;SDS011;10573;50.936;6.978;2023-02-15T16:59:16;17.33;;;11.07;;
20824;SDS011;10573;50.936;6.978;2023-02-15T17:01:59;17.38;;;10.52;;
20824;SDS011;10573;50.936;6.978;2023-02-15T17:04:30;17.60;;;10.75;;
20824;SDS011;10573;50.936;6.978;2023-02-15T17:07:13;18.73;;;11.02;;
20824;SDS011;10573;50.936;6.978;2023-02-15T17:09:54;16.95;;;10.30;;
20824;SDS011;10573;50.936;6.978;2023-02-15T17:15:25;18.65;;;11.40;;
20824;SDS011;10573;50.936;6.978;2023-02-15T17:17:54;16.58;;;10.85;;
20824;SDS011;10573;50.936;6.978;2023-02-15T17:20:21;17.40;;;10.45;;
20824;SDS011;10573;50.936;6.978;2023-02-15T17:22:48;16.17;;;9.93;;
20824;SDS011;10573;50.936;6.978;2023-02-15T17:25:21;20.83;;;10.77;;
20824;SDS011;10573;50.936;6.978;2023-02-15T17:27:54;17.30;;;10.57;;
20824;SDS011;10573;50.936;6.978;2023-02-15T17:30:24;19.65;;;11.85;;
20824;SDS011;10573;50.936;6.978;2023-02-15T17:32:56;17.70;;;10.70;;
20824;SDS011;10573;50.936;6.978;2023-02-15T17:35:24;18.40;;;10.30;;
20824;SDS011;10573;50.936;6.978;2023-02-15T17:38:00;17.13;;;10.70;;
20824;SDS011;10573;50.936;6.978;2023-02-15T17:40:26;19.90;;;11.18;;
20824;SDS011;10573;50.936;6.978;2023-02-15T17:42:54;19.08;;;10.90;;
20824;SDS011;10573;50.936;6.978;2023-02-15T17:45:20;16.43;;;10.47;;
20824;SDS011;10573;50.936;6.978;2023-02-15T17:47:47;16.58;;;10.55;;
20824;SDS011;10573;50.936;6.978;2023-02-15T17:50:23;18.15;;;10.77;;
20824;SDS011;10573;50.936;6.978;2023-02-15T17:52:53;17.95;;;10.77;;
20824;SDS011;10573;50.936;6.978;2023-02-15T17:55:21;18.77;;;11.23;;
20824;SDS011;10573;50.936;6.978;2023-02-15T17:58:00;19.50;;;11.35;;
20824;SDS011;10573;50.936;6.978;2023-02-15T18:00:27;18.00;;;10.70;;
20824;SDS011;10573;50.936;6.978;2023-02-15T18:03:13;18.40;;;11.07;;
20824;SDS011;10573;50.936;6.978;2023-02-15T18:05:57;17.55;;;11.30;;
20824;SDS011;10573;50.936;6.978;2023-02-15T18:08:41;20.70;;;11.63;;
20824;SDS011;10573;50.936;6.978;2023-02-15T18:11:26;20.97;;;11.13;;
20824;SDS011;10573;50.936;6.978;2023-02-15T18:14:07;20.83;;;12.30;;
20824;SDS011;10573;50.936;6.978;2023-02-15T18:16:38;23.27;;;13.23;;
20824;SDS011;10573;50.936;6.978;2023-02-15T18:19:25;20.83;;;12.05;;
20824;SDS011;10573;50.936;6.978;2023-02-15T18:21:51;23.65;;;13.65;;
20824;SDS011;10573;50.936;6.978;2023-02-15T18:24:23;24.40;;;14.18;;
20824;SDS011;10573;50.936;6.978;2023-02-15T18:26:50;21.63;;;12.52;;
20824;SDS011;10573;50.936;6.978;2023-02-15T18:29:17;30.55;;;15.52;;
20824;SDS011;10573;50.936;6.978;2023-02-15T18:31:43;26.85;;;14.98;;
20824;SDS011;10573;50.936;6.978;2023-02-15T18:36:52;20.00;;;11.55;;
20824;SDS011;10573;50.936;6.978;2023-02-15T18:42:03;21.63;;;12.38;;
20824;SDS011;10573;50.936;6.978;2023-02-15T18:44:29;20.63;;;11.90;;
20824;SDS011;10573;50.936;6.978;2023-02-15T18:46:55;23.03;;;13.30;;
20824;SDS011;10573;50.936;6.978;2023-02-15T18:49:20;23.33;;;12.97;;
20824;SDS011;10573;50.936;6.978;2023-02-15T18:51:45;20.47;;;12.57;;
20824;SDS011;10573;50.936;6.978;2023-02-15T18:54:15;21.90;;;12.82;;
20824;SDS011;10573;50.936;6.978;2023-02-15T18:56:43;21.25;;;11.70;;
20824;SDS011;10573;50.936;6.978;2023-02-15T18:59:13;20.30;;;11.70;;
20824;SDS011;10573;50.936;6.978;2023-02-15T19:01:40;20.60;;;11.97;;
20824;SDS011;10573;50.936;6.978;2023-02-15T19:04:07;22.80;;;11.43;;
20824;SDS011;10573;50.936;6.978;2023-02-15T19:06:32;20.05;;;11.85;;
20824;SDS011;10573;50.936;6.978;2023-02-15T19:08:58;21.20;;;12.10;;
20824;SDS011;10573;50.936;6.978;2023-02-15T19:11:23;19.43;;;11.50;;
20824;SDS011;10573;50.936;6.978;2023-02-15T19:13:51;20.67;;;12.15;;
20824;SDS011;10573;50.936;6.978;2023-02-15T19:16:27;22.77;;;11.55;;
20824;SDS011;10573;50.936;6.978;2023-02-15T19:18:55;20.25;;;12.10;;
20824;SDS011;10573;50.936;6.978;2023-02-15T19:21:21;21.10;;;11.77;;
20824;SDS011;10573;50.936;6.978;2023-02-15T19:23:50;22.15;;;11.63;;
20824;SDS011;10573;50.936;6.978;2023-02-15T19:26:23;21.50;;;11.35;;
20824;SDS011;10573;50.936;6.978;2023-02-15T19:28:50;20.50;;;12.00;;
20824;SDS011;10573;50.936;6.978;2023-02-15T19:31:16;22.17;;;11.70;;
20824;SDS011;10573;50.936;6.978;2023-02-15T19:33:42;19.55;;;11.55;;
20824;SDS011;10573;50.936;6.978;2023-02-15T19:36:15;18.75;;;11.02;;
20824;SDS011;10573;50.936;6.978;2023-02-15T19:38:42;20.52;;;12.32;;
20824;SDS011;10573;50.936;6.978;2023-02-15T19:41:22;18.50;;;11.17;;
20824;SDS011;10573;50.936;6.978;2023-02-15T19:43:52;23.98;;;12.68;;
20824;SDS011;10573;50.936;6.978;2023-02-15T19:46:19;21.42;;;12.50;;
20824;SDS011;10573;50.936;6.978;2023-02-15T19:48:47;21.40;;;12.35;;
20824;SDS011;10573;50.936;6.978;2023-02-15T19:51:13;26.93;;;13.90;;
20824;SDS011;10573;50.936;6.978;2023-02-15T19:53:38;23.80;;;14.00;;
20824;SDS011;10573;50.936;6.978;2023-02-15T19:56:07;20.85;;;12.77;;
20824;SDS011;10573;50.936;6.978;2023-02-15T19:58:36;28.90;;;15.43;;
20824;SDS011;10573;50.936;6.978;2023-02-15T20:01:01;29.92;;;14.88;;
20824;SDS011;10573;50.936;6.978;2023-02-15T20:03:26;22.53;;;12.80;;
20824;SDS011;10573;50.936;6.978;2023-02-15T20:05:52;23.73;;;12.87;;
20824;SDS011;10573;50.936;6.978;2023-02-15T20:08:18;25.10;;;14.00;;
20824;SDS011;10573;50.936;6.978;2023-02-15T20:10:45;23.48;;;13.50;;
20824;SDS011;10573;50.936;6.978;2023-02-15T20:13:15;21.08;;;12.15;;
20824;SDS011;10573;50.936;6.978;2023-02-15T20:15:42;20.67;;;12.45;;
20824;SDS011;10573;50.936;6.978;2023-02-15T20:18:08;22.50;;;12.57;;
20824;SDS011;10573;50.936;6.978;2023-02-15T20:20:44;21.10;;;13.13;;
20824;SDS011;10573;50.936;6.978;2023-02-15T20:23:16;23.25;;;13.43;;
20824;SDS011;10573;50.936;6.978;2023-02-15T20:25:44;21.17;;;13.05;;
20824;SDS011;10573;50.936;6.978;2023-02-15T20:28:13;24.45;;;12.95;;
20824;SDS011;10573;50.936;6.978;2023-02-15T20:30:41;23.88;;;13.15;;
20824;SDS011;10573;50.936;6.978;2023-02-15T20:33:07;24.13;;;12.93;;
20824;SDS011;10573;50.936;6.978;2023-02-15T20:35:32;20.40;;;12.67;;
20824;SDS011;10573;50.936;6.978;2023-02-15T20:37:58;22.38;;;12.77;;
20824;SDS011;10573;50.936;6.978;2023-02-15T20:40:29;24.98;;;13.20;;
20824;SDS011;10573;50.936;6.978;2023-02-15T20:42:57;20.02;;;12.32;;
20824;SDS011;10573;50.936;6.978;2023-02-15T20:45:24;23.43;;;12.80;;
20824;SDS011;10573;50.936;6.978;2023-02-15T20:47:51;24.00;;;13.67;;
20824;SDS011;10573;50.936;6.978;2023-02-15T20:50:21;27.70;;;14.55;;
20824;SDS011;10573;50.936;6.978;2023-02-15T20:52:50;26.23;;;14.90;;
20824;SDS011;10573;50.936;6.978;2023-02-15T20:55:17;32.55;;;16.73;;
20824;SDS011;10573;50.936;6.978;2023-02-15T20:57:44;24.08;;;14.15;;
20824;SDS011;10573;50.936;6.978;2023-02-15T21:00:20;28.27;;;15.73;;
20824;SDS011;10573;50.936;6.978;2023-02-15T21:02:48;26.33;;;14.95;;
20824;SDS011;10573;50.936;6.978;2023-02-15T21:05:20;25.05;;;14.77;;
20824;SDS011;10573;50.936;6.978;2023-02-15T21:07:47;24.20;;;14.23;;
20824;SDS011;10573;50.936;6.978;2023-02-15T21:10:15;24.63;;;14.00;;